GCXO/TFN METAR and TAF weather

Enter ICAO airport designator
Station Type Date Time Source
GCXO METAR 2019/12/08 03:30 UTC NOAA

GCXO 080330Z AUTO 30005KT 260V330 9999 FEW019 BKN027 BKN034 13/11 Q1027


Station Type Date Time Source
GCXO Decoded METAR 2019/12/08 03:30 UTC NOAA

Tenerife / Los Rodeos, Spain (GCXO) 28-28N 016-19W 617M
Dec 07, 2019 - 10:30 PM EST / 2019.12.08 0330 UTC
Wind: from the WNW (300 degrees) at 6 MPH (5 KT) (direction variable):0
Visibility: greater than 7 mile(s):0
Sky conditions: mostly cloudy
Temperature: 55 F (13 C)
Dew Point: 51 F (11 C)
Relative Humidity: 87%
Pressure (altimeter): 30.33 in. Hg (1027 hPa)
ob: GCXO 080330Z AUTO 30005KT 260V330 9999 FEW019 BKN027 BKN034 13/11 Q1027
cycle: 3

Station Type Date Time Source
GCXO TAF 2019/12/08 03:27 UTC NOAA

TAF GCXO 080200Z 0803/0903 34007KT 9999 FEW015 SCT030 BKN040 TX17/0814Z TN12/0807Z

Example: see airport list